createdAt,value
2022-09-01T00:00:30.890Z,97835.38
2022-09-01T00:02:39.066Z,97836.50
2022-09-01T00:04:48.362Z,97841.84
2022-09-01T00:06:59.991Z,97838.19
2022-09-01T00:09:10.525Z,97835.75
2022-09-01T00:11:21.836Z,97838.19
2022-09-01T00:13:33.205Z,97833.06
2022-09-01T00:15:48.830Z,97841.59
2022-09-01T00:17:57.607Z,97836.22
2022-09-01T00:20:07.657Z,97846.69
2022-09-01T00:22:15.888Z,97840.47
2022-09-01T00:24:26.338Z,97840.94
2022-09-01T00:26:37.612Z,97831.09
2022-09-01T00:28:45.799Z,97840.34
2022-09-01T00:30:53.903Z,97842.91
2022-09-01T00:33:03.221Z,97838.25
2022-09-01T00:35:12.805Z,97840.94
2022-09-01T00:37:20.696Z,97838.38
2022-09-01T00:39:28.756Z,97836.44
2022-09-01T00:41:41.901Z,97834.50
2022-09-01T00:43:52.972Z,97831.22
2022-09-01T00:46:01.105Z,97833.53
2022-09-01T00:48:09.413Z,97831.22
2022-09-01T00:50:21.157Z,97832.28
2022-09-01T00:52:35.465Z,97825.66
2022-09-01T00:54:47.708Z,97825.50
2022-09-01T00:56:59.320Z,97827.56
2022-09-01T00:59:09.750Z,97828.66
2022-09-01T01:01:17.919Z,97827.19
2022-09-01T01:03:26.802Z,97823.91
2022-09-01T01:05:41.874Z,97830.84
2022-09-01T01:07:50.274Z,97829.38
2022-09-01T01:09:58.995Z,97823.41
2022-09-01T01:12:17.572Z,97826.44
2022-09-01T01:14:28.825Z,97827.31
2022-09-01T01:16:36.861Z,97826.69
2022-09-01T01:18:45.317Z,97833.16
2022-09-01T01:21:16.552Z,97830.50
2022-09-01T01:23:31.108Z,97831.06
2022-09-01T01:25:45.705Z,97824.25
2022-09-01T01:27:55.603Z,97823.22
2022-09-01T01:30:04.019Z,97829.53
2022-09-01T01:32:18.339Z,97835.22
2022-09-01T01:34:26.775Z,97825.16
2022-09-01T01:36:38.096Z,97826.47
2022-09-01T01:38:52.585Z,97830.13
2022-09-01T01:41:03.528Z,97827.53
2022-09-01T01:43:12.294Z,97833.13
2022-09-01T01:45:22.550Z,97836.16
2022-09-01T01:47:30.475Z,97832.00
2022-09-01T01:49:41.870Z,97831.28
2022-09-01T01:51:56.280Z,97828.16
2022-09-01T01:54:08.531Z,97837.16
2022-09-01T01:56:19.551Z,97832.50
2022-09-01T01:58:30.483Z,97842.56
2022-09-01T02:00:40.342Z,97841.22
2022-09-01T02:02:52.434Z,97849.34
2022-09-01T02:05:00.625Z,97838.66
2022-09-01T02:07:10.795Z,97845.38
2022-09-01T02:09:21.393Z,97843.66
2022-09-01T02:11:37.969Z,97844.97
2022-09-01T02:13:47.977Z,97841.22
2022-09-01T02:15:57.874Z,97845.59
2022-09-01T02:18:05.804Z,97834.28
2022-09-01T02:20:16.134Z,97835.34
2022-09-01T02:22:24.047Z,97835.47
2022-09-01T02:24:32.994Z,97831.22
2022-09-01T02:26:46.012Z,97838.41
2022-09-01T02:28:55.994Z,97843.88
2022-09-01T02:31:11.504Z,97834.50
2022-09-01T02:33:23.854Z,97831.75
2022-09-01T02:35:38.040Z,97839.63
2022-09-01T02:37:49.517Z,97838.03
2022-09-01T02:39:59.624Z,97834.41
2022-09-01T02:42:11.864Z,97829.06
2022-09-01T02:44:22.187Z,97826.50
2022-09-01T02:46:31.278Z,97823.09
2022-09-01T02:48:46.284Z,97833.91
2022-09-01T02:50:59.514Z,97825.53
2022-09-01T02:53:10.179Z,97825.78
2022-09-01T02:55:23.078Z,97824.84
2022-09-01T02:57:34.699Z,97822.91
2022-09-01T02:59:45.655Z,97821.81
2022-09-01T03:01:56.480Z,97826.91
2022-09-01T03:04:08.272Z,97825.66
2022-09-01T03:06:19.448Z,97819.91
2022-09-01T03:08:28.025Z,97820.66
2022-09-01T03:10:41.840Z,97817.75
2022-09-01T03:12:52.685Z,97817.03
2022-09-01T03:15:01.067Z,97824.06
2022-09-01T03:17:09.340Z,97816.44
2022-09-01T03:19:19.255Z,97817.16
2022-09-01T03:21:27.924Z,97820.09
2022-09-01T03:23:37.022Z,97824.34
2022-09-01T03:25:46.390Z,97813.66
2022-09-01T03:28:03.113Z,97822.84
2022-09-01T03:30:12.823Z,97820.78
2022-09-01T03:32:20.931Z,97829.41
2022-09-01T03:34:28.845Z,97814.91
2022-09-01T03:36:39.869Z,97827.63
2022-09-01T03:38:48.828Z,97826.44
2022-09-01T03:41:02.409Z,97824.41
2022-09-01T03:43:14.237Z,97827.81
2022-09-01T03:45:25.938Z,97830.31
2022-09-01T03:47:33.823Z,97832.03
2022-09-01T03:49:43.765Z,97828.47
2022-09-01T03:51:53.059Z,97824.97
2022-09-01T03:54:02.015Z,97825.59
2022-09-01T03:56:11.728Z,97823.16
2022-09-01T03:58:23.623Z,97828.84
2022-09-01T04:00:38.855Z,97825.31
2022-09-01T04:02:48.410Z,97821.56
2022-09-01T04:05:08.579Z,97815.09
2022-09-01T04:07:19.178Z,97825.03
2022-09-01T04:09:27.636Z,97821.63
2022-09-01T04:11:36.374Z,97822.69
2022-09-01T04:13:48.352Z,97821.41
2022-09-01T04:15:56.978Z,97827.91
2022-09-01T04:18:09.934Z,97827.41
2022-09-01T04:20:20.973Z,97826.81
2022-09-01T04:22:32.142Z,97829.47
2022-09-01T04:24:46.302Z,97821.47
2022-09-01T04:26:56.480Z,97824.34
2022-09-01T04:29:09.309Z,97829.69
2022-09-01T04:31:20.606Z,97825.31
2022-09-01T04:33:37.095Z,97830.19
2022-09-01T04:35:45.810Z,97830.06
2022-09-01T04:37:54.264Z,97822.38
2022-09-01T04:40:02.788Z,97822.19
2022-09-01T04:42:12.173Z,97826.84
2022-09-01T04:44:25.544Z,97824.47
2022-09-01T04:46:36.021Z,97827.75
2022-09-01T04:48:47.852Z,97825.84
2022-09-01T04:50:58.687Z,97819.19
2022-09-01T04:53:12.128Z,97827.47
2022-09-01T04:55:24.838Z,97827.75
2022-09-01T04:57:32.844Z,97827.41
2022-09-01T04:59:44.001Z,97828.91
2022-09-01T05:01:55.854Z,97822.38
2022-09-01T05:04:05.390Z,97819.69
2022-09-01T05:06:18.523Z,97824.81
2022-09-01T05:08:36.249Z,97819.22
2022-09-01T05:10:52.487Z,97827.00
2022-09-01T05:13:10.223Z,97817.03
2022-09-01T05:15:21.338Z,97818.13
2022-09-01T05:17:29.881Z,97815.81
2022-09-01T05:19:38.549Z,97816.31
2022-09-01T05:21:50.705Z,97818.84
2022-09-01T05:24:00.876Z,97815.09
2022-09-01T05:26:17.093Z,97822.13
2022-09-01T05:28:27.422Z,97826.66
2022-09-01T05:30:39.895Z,97824.09
2022-09-01T05:32:50.933Z,97824.09
2022-09-01T05:34:59.715Z,97823.97
2022-09-01T05:37:08.922Z,97829.66
2022-09-01T05:39:19.688Z,97822.25
2022-09-01T05:41:28.670Z,97823.84
2022-09-01T05:43:39.336Z,97820.19
2022-09-01T05:46:06.246Z,97824.53
2022-09-01T05:48:21.823Z,97827.97
2022-09-01T05:50:31.542Z,97831.69
2022-09-01T05:52:44.598Z,97829.16
2022-09-01T05:54:52.944Z,97833.38
2022-09-01T05:57:23.457Z,97835.47
2022-09-01T05:59:33.502Z,97829.91
2022-09-01T06:02:01.591Z,97838.38
2022-09-01T06:04:11.557Z,97839.31
2022-09-01T06:06:22.344Z,97840.78
2022-09-01T06:08:30.286Z,97846.31
2022-09-01T06:10:42.014Z,97847.88
2022-09-01T06:12:54.015Z,97853.28
2022-09-01T06:15:03.824Z,97846.72
2022-09-01T06:17:16.766Z,97851.91
2022-09-01T06:19:27.368Z,97847.09
2022-09-01T06:21:36.107Z,97857.34
2022-09-01T06:23:45.638Z,97856.19
2022-09-01T06:25:53.926Z,97864.28
2022-09-01T06:28:04.656Z,97876.59
2022-09-01T06:30:23.695Z,97876.91
2022-09-01T06:32:52.264Z,97882.97
2022-09-01T06:35:00.601Z,97886.53
2022-09-01T06:37:08.649Z,97889.81
2022-09-01T06:39:20.195Z,97891.94
2022-09-01T06:41:32.413Z,97892.09
2022-09-01T06:43:41.916Z,97893.50
2022-09-01T06:45:54.959Z,97895.34
2022-09-01T06:48:07.648Z,97898.75
2022-09-01T06:55:34.125Z,97897.47
2022-09-01T06:58:06.564Z,97906.97
2022-09-01T07:00:19.137Z,97921.72
2022-09-01T07:02:30.373Z,97927.72
2022-09-01T07:05:02.882Z,97956.84
2022-09-01T07:10:17.723Z,97986.44
2022-09-01T07:12:32.213Z,97990.31
2022-09-01T07:17:27.132Z,97998.59
2022-09-01T07:19:51.050Z,98002.81
2022-09-01T07:22:35.259Z,98018.38
2022-09-01T07:24:32.158Z,98011.19
2022-09-01T07:27:09.477Z,98016.06
2022-09-01T07:29:21.930Z,97997.53
2022-09-01T07:31:50.590Z,97973.25
2022-09-01T07:37:16.152Z,97921.28
2022-09-01T07:45:26.677Z,97925.75
2022-09-01T07:47:54.962Z,97938.28
2022-09-01T07:50:37.373Z,97936.59
2022-09-01T07:52:36.752Z,97936.53
2022-09-01T07:54:47.693Z,97932.81
2022-09-01T07:56:57.183Z,97937.56
2022-09-01T07:59:06.346Z,97940.41
2022-09-01T08:01:18.997Z,97936.59
2022-09-01T08:03:29.158Z,97938.72
2022-09-01T08:05:37.109Z,97946.69
2022-09-01T08:07:54.597Z,97948.50
2022-09-01T08:10:12.581Z,97941.84
2022-09-01T08:12:28.915Z,97943.09
2022-09-01T08:14:37.258Z,97944.66
2022-09-01T08:16:53.404Z,97957.19
2022-09-01T08:19:02.587Z,97950.03
2022-09-01T08:21:37.616Z,97950.84
2022-09-01T08:24:08.734Z,97950.28
2022-09-01T08:26:24.088Z,97953.22
2022-09-01T08:28:33.617Z,97949.88
2022-09-01T08:30:51.253Z,97947.00
2022-09-01T08:33:10.210Z,97950.88
2022-09-01T08:35:23.253Z,97946.56
2022-09-01T08:37:31.300Z,97950.75
2022-09-01T08:39:39.983Z,97953.63
2022-09-01T08:42:02.098Z,97953.63
2022-09-01T08:44:19.651Z,97960.66
2022-09-01T08:46:31.124Z,97963.59
2022-09-01T08:51:30.507Z,97960.59
2022-09-01T08:53:45.973Z,97957.66
2022-09-01T08:55:59.223Z,97964.56
2022-09-01T08:58:12.275Z,97965.53
2022-09-01T09:01:00.032Z,97964.38
2022-09-01T09:03:17.060Z,97967.09
2022-09-01T09:05:46.249Z,97961.44
2022-09-01T09:08:11.665Z,97965.59
2022-09-01T09:10:24.634Z,97962.00
2022-09-01T09:12:51.623Z,97970.50
2022-09-01T09:15:11.926Z,97970.81
2022-09-01T09:17:26.273Z,97967.34
2022-09-01T09:19:36.804Z,97969.72
2022-09-01T09:21:47.517Z,97963.41
2022-09-01T09:24:02.098Z,97959.75
2022-09-01T09:26:09.965Z,97961.50
2022-09-01T09:28:17.859Z,97959.22
2022-09-01T09:30:32.657Z,97965.16
2022-09-01T09:33:30.529Z,97961.72
2022-09-01T09:35:36.624Z,97964.41
2022-09-01T09:37:44.477Z,97961.09
2022-09-01T09:40:10.581Z,97964.88
2022-09-01T09:42:19.618Z,97966.97
2022-09-01T09:44:30.033Z,97960.66
2022-09-01T09:46:43.630Z,97967.34
2022-09-01T09:49:16.147Z,97966.78
2022-09-01T09:51:28.840Z,97961.44
2022-09-01T09:53:38.133Z,97963.13
2022-09-01T09:55:58.141Z,97953.66
2022-09-01T09:58:14.874Z,97957.44
2022-09-01T10:00:25.584Z,97961.78
2022-09-01T10:02:39.745Z,97951.47
2022-09-01T10:04:48.614Z,97947.56
2022-09-01T10:07:02.068Z,97948.63
2022-09-01T10:09:12.153Z,97947.28
2022-09-01T10:11:41.614Z,97957.47
2022-09-01T10:13:49.919Z,97953.94
2022-09-01T10:16:01.139Z,97950.59
2022-09-01T10:18:20.839Z,97962.84
2022-09-01T10:20:30.874Z,97965.28
2022-09-01T10:22:40.635Z,97958.75
2022-09-01T10:24:50.571Z,97955.72
2022-09-01T10:27:01.956Z,97951.81
2022-09-01T10:29:16.287Z,97959.34
2022-09-01T10:31:32.076Z,97955.72
2022-09-01T10:33:43.729Z,97948.16
2022-09-01T10:35:56.838Z,97949.78
2022-09-01T10:38:11.970Z,97944.25
2022-09-01T10:40:41.374Z,97961.16
2022-09-01T10:42:55.383Z,97953.53
2022-09-01T10:45:04.003Z,97952.84
2022-09-01T10:47:16.484Z,97943.34
2022-09-01T10:50:07.709Z,97940.28
2022-09-01T10:52:51.188Z,97941.69
2022-09-01T10:55:03.661Z,97940.63
2022-09-01T10:57:15.417Z,97939.03
2022-09-01T10:59:31.627Z,97929.19
2022-09-01T11:02:24.841Z,97939.06
2022-09-01T11:05:04.869Z,97939.28
2022-09-01T11:07:57.941Z,97938.69
2022-09-01T11:10:33.288Z,97935.59
2022-09-01T11:12:52.705Z,97927.69
2022-09-01T11:15:02.760Z,97928.34
2022-09-01T11:17:17.526Z,97925.22
2022-09-01T11:19:44.520Z,97927.03
2022-09-01T11:22:08.439Z,97927.88
2022-09-01T11:24:50.822Z,97924.78
2022-09-01T11:27:07.347Z,97920.53
2022-09-01T11:29:46.198Z,97922.66
2022-09-01T11:31:55.051Z,97916.25
2022-09-01T11:34:07.397Z,97912.44
2022-09-01T11:36:32.356Z,97916.59
2022-09-01T11:38:49.220Z,97922.78
2022-09-01T11:40:59.769Z,97918.56
2022-09-01T11:43:16.532Z,97906.34
2022-09-01T11:45:28.563Z,97911.31
2022-09-01T11:47:41.471Z,97903.34
2022-09-01T11:49:57.945Z,97908.19
2022-09-01T11:52:07.848Z,97914.59
2022-09-01T11:54:17.554Z,97904.50
2022-09-01T11:56:29.356Z,97905.69
2022-09-01T11:58:41.951Z,97898.75
2022-09-01T12:00:49.945Z,97904.75
2022-09-01T12:02:58.205Z,97905.97
2022-09-01T12:05:26.563Z,97905.97
2022-09-01T12:07:45.588Z,97911.72
2022-09-01T12:09:54.418Z,97914.75
2022-09-01T12:12:02.441Z,97905.78
2022-09-01T12:14:15.563Z,97909.31
2022-09-01T12:16:24.980Z,97901.13
2022-09-01T12:18:35.693Z,97895.78
2022-09-01T12:20:44.025Z,97890.84
2022-09-01T12:22:52.113Z,97890.25
2022-09-01T12:25:00.931Z,97891.75
2022-09-01T12:27:08.919Z,97892.84
2022-09-01T12:29:20.481Z,97889.78
2022-09-01T12:31:29.844Z,97893.56
2022-09-01T12:33:38.633Z,97890.31
2022-09-01T12:35:46.709Z,97899.56
2022-09-01T12:37:55.420Z,97895.06
2022-09-01T12:40:03.485Z,97884.84
2022-09-01T12:42:27.356Z,97891.19
2022-09-01T12:44:47.790Z,97885.38
2022-09-01T12:46:55.996Z,97889.28
2022-09-01T12:49:19.981Z,97893.00
2022-09-01T12:51:31.557Z,97889.69
2022-09-01T12:53:42.432Z,97888.69
2022-09-01T12:56:07.661Z,97899.69
2022-09-01T12:58:15.642Z,97889.84
2022-09-01T13:00:30.008Z,97887.00
2022-09-01T13:02:41.416Z,97898.19
2022-09-01T13:04:49.800Z,97891.56
2022-09-01T13:07:00.236Z,97887.50
2022-09-01T13:09:08.654Z,97894.28
2022-09-01T13:11:21.480Z,97901.22
2022-09-01T13:13:30.272Z,97894.75
2022-09-01T13:15:42.913Z,97889.03
2022-09-01T13:17:51.482Z,97889.50
2022-09-01T13:19:59.407Z,97889.34
2022-09-01T13:22:08.077Z,97889.72
2022-09-01T13:24:18.010Z,97882.56
2022-09-01T13:26:26.446Z,97881.22
2022-09-01T13:28:36.436Z,97879.22
2022-09-01T13:33:24.364Z,97869.63
2022-09-01T13:35:32.765Z,97874.88
2022-09-01T13:37:41.665Z,97868.88
2022-09-01T13:39:49.999Z,97868.56
2022-09-01T13:41:57.895Z,97868.81
2022-09-01T13:44:06.194Z,97862.19
2022-09-01T13:46:17.751Z,97863.03
2022-09-01T13:49:02.124Z,97857.34
2022-09-01T13:53:24.050Z,97860.09
2022-09-01T13:55:33.721Z,97856.19
2022-09-01T13:57:41.834Z,97852.78
2022-09-01T13:59:49.689Z,97857.56
2022-09-01T14:02:01.886Z,97865.50
2022-09-01T14:04:10.462Z,97859.03
2022-09-01T14:06:19.762Z,97851.56
2022-09-01T14:08:27.836Z,97853.41
2022-09-01T14:10:37.105Z,97846.97
2022-09-01T14:12:46.113Z,97843.22
2022-09-01T14:17:24.855Z,97849.19
2022-09-01T14:19:32.684Z,97847.34
2022-09-01T14:21:40.649Z,97839.94
2022-09-01T14:23:48.759Z,97848.84
2022-09-01T14:25:58.936Z,97847.81
2022-09-01T14:28:08.068Z,97841.72
2022-09-01T14:30:20.135Z,97844.56
2022-09-01T14:32:31.497Z,97844.06
2022-09-01T14:34:39.533Z,97849.16
2022-09-01T14:36:49.940Z,97852.56
2022-09-01T14:38:58.691Z,97843.28
2022-09-01T14:41:06.863Z,97833.16
2022-09-01T14:43:15.539Z,97839.94
2022-09-01T14:45:25.949Z,97834.34
2022-09-01T14:47:39.316Z,97834.84
2022-09-01T14:49:48.239Z,97839.09
2022-09-01T14:52:12.031Z,97836.06
2022-09-01T14:54:20.199Z,97835.03
2022-09-01T14:56:29.657Z,97835.38
2022-09-01T14:58:37.533Z,97841.28
2022-09-01T15:00:46.028Z,97825.91
2022-09-01T15:02:57.811Z,97842.97
2022-09-01T15:05:06.000Z,97825.19
2022-09-01T15:07:15.066Z,97824.38
2022-09-01T15:09:23.016Z,97823.69
2022-09-01T15:11:31.242Z,97817.94
2022-09-01T15:13:42.362Z,97818.09
2022-09-01T15:15:52.850Z,97817.44
2022-09-01T15:18:04.260Z,97815.41
2022-09-01T15:20:24.752Z,97823.53
2022-09-01T15:22:32.898Z,97815.06
2022-09-01T15:24:40.726Z,97816.41
2022-09-01T15:26:48.728Z,97824.38
2022-09-01T15:28:57.035Z,97816.41
2022-09-01T15:31:04.947Z,97819.63
2022-09-01T15:33:16.890Z,97816.94
2022-09-01T15:35:25.315Z,97811.19
2022-09-01T15:37:33.185Z,97810.66
2022-09-01T15:39:41.067Z,97814.91
2022-09-01T15:41:48.935Z,97812.34
2022-09-01T15:43:58.056Z,97817.91
2022-09-01T15:46:07.988Z,97819.81
2022-09-01T15:48:18.536Z,97814.41
2022-09-01T15:50:29.108Z,97814.88
2022-09-01T15:52:37.121Z,97807.56
2022-09-01T15:54:45.010Z,97808.25
2022-09-01T15:56:52.853Z,97801.66
2022-09-01T15:59:02.542Z,97809.44
2022-09-01T16:01:10.442Z,97808.44
2022-09-01T16:03:21.260Z,97800.31
2022-09-01T16:05:29.277Z,97798.44
2022-09-01T16:07:37.895Z,97805.22
2022-09-01T16:09:45.684Z,97803.69
2022-09-01T16:11:53.902Z,97800.66
2022-09-01T16:14:02.483Z,97797.94
2022-09-01T16:16:22.532Z,97792.19
2022-09-01T16:18:41.516Z,97793.03
2022-09-01T16:20:58.222Z,97791.00
2022-09-01T16:23:17.236Z,97784.22
2022-09-01T16:25:31.604Z,97782.84
2022-09-01T16:27:43.916Z,97783.38
2022-09-01T16:29:53.915Z,97782.84
2022-09-01T16:32:01.980Z,97780.31
2022-09-01T16:34:18.372Z,97777.25
2022-09-01T16:36:38.103Z,97783.16
2022-09-01T16:38:51.379Z,97779.25
2022-09-01T16:41:07.958Z,97773.31
2022-09-01T16:43:26.899Z,97770.56
2022-09-01T16:45:45.429Z,97775.66
2022-09-01T16:48:06.505Z,97773.81
2022-09-01T16:50:26.125Z,97767.16
2022-09-01T16:52:46.620Z,97776.97
2022-09-01T16:55:18.620Z,97771.75
2022-09-01T16:57:35.013Z,97765.31
2022-09-01T16:59:55.690Z,97763.09
2022-09-01T17:02:15.922Z,97758.00
2022-09-01T17:04:35.737Z,97760.50
2022-09-01T17:06:55.859Z,97756.25
2022-09-01T17:09:13.191Z,97761.84
2022-09-01T17:11:32.663Z,97755.06
2022-09-01T17:13:44.238Z,97757.38
2022-09-01T17:15:58.215Z,97760.38
2022-09-01T17:18:22.423Z,97759.69
2022-09-01T17:20:35.684Z,97763.03
2022-09-01T17:22:54.333Z,97760.66
2022-09-01T17:25:07.933Z,97763.84
2022-09-01T17:27:23.257Z,97763.59
2022-09-01T17:29:34.538Z,97764.69
2022-09-01T17:31:54.400Z,97767.19
2022-09-01T17:34:12.045Z,97766.28
2022-09-01T17:36:27.396Z,97775.47
2022-09-01T17:38:54.267Z,97776.09
2022-09-01T17:41:13.669Z,97774.19
2022-09-01T17:43:26.455Z,97775.13
2022-09-01T17:45:47.863Z,97779.13
2022-09-01T17:48:07.636Z,97780.69
2022-09-01T17:50:20.639Z,97779.59
2022-09-01T17:52:52.555Z,97780.69
2022-09-01T17:55:09.069Z,97783.56
2022-09-01T17:57:24.605Z,97776.84
2022-09-01T17:59:40.497Z,97774.66
2022-09-01T18:01:58.652Z,97773.84
2022-09-01T18:04:52.154Z,97773.38
2022-09-01T18:07:06.958Z,97788.88
2022-09-01T18:09:23.087Z,97786.06
2022-09-01T18:11:37.948Z,97789.78
2022-09-01T18:13:53.737Z,97798.13
2022-09-01T18:16:04.963Z,97791.81
2022-09-01T18:18:26.777Z,97805.56
2022-09-01T18:20:43.882Z,97800.06
2022-09-01T18:22:55.892Z,97804.16
2022-09-01T18:25:11.462Z,97807.81
2022-09-01T18:27:24.652Z,97809.41
2022-09-01T18:29:34.780Z,97814.94
2022-09-01T18:32:11.594Z,97816.38
2022-09-01T18:34:28.296Z,97815.94
2022-09-01T18:36:48.075Z,97821.16
2022-09-01T18:39:01.040Z,97818.75
2022-09-01T18:41:31.370Z,97817.38
2022-09-01T18:43:46.888Z,97813.41
2022-09-01T18:46:02.858Z,97810.56
2022-09-01T18:48:24.861Z,97814.81
2022-09-01T18:50:37.553Z,97815.09
2022-09-01T18:53:02.678Z,97812.97
2022-09-01T18:55:21.527Z,97816.63
2022-09-01T18:57:36.735Z,97814.50
2022-09-01T19:00:04.884Z,97811.41
2022-09-01T19:02:40.428Z,97809.56
2022-09-01T19:04:49.084Z,97814.25
2022-09-01T19:07:07.325Z,97819.03
2022-09-01T19:09:20.434Z,97813.50
2022-09-01T19:11:43.322Z,97816.63
2022-09-01T19:14:06.615Z,97812.53
2022-09-01T19:16:31.942Z,97812.66
2022-09-01T19:18:46.374Z,97812.78
2022-09-01T19:21:01.278Z,97815.09
2022-09-01T19:23:13.798Z,97810.97
2022-09-01T19:25:36.150Z,97820.75
2022-09-01T19:27:45.904Z,97819.19
2022-09-01T19:29:57.812Z,97828.81
2022-09-01T19:32:20.132Z,97820.03
2022-09-01T19:34:31.667Z,97819.47
2022-09-01T19:36:45.673Z,97819.47
2022-09-01T19:39:01.380Z,97819.88
2022-09-01T19:41:19.252Z,97824.84
2022-09-01T19:43:29.837Z,97828.69
2022-09-01T19:45:47.411Z,97821.72
2022-09-01T19:48:05.746Z,97826.69
2022-09-01T19:50:18.517Z,97824.00
2022-09-01T19:52:35.420Z,97824.72
2022-09-01T19:54:52.779Z,97818.03
2022-09-01T19:57:11.580Z,97814.94
2022-09-01T19:59:25.291Z,97815.31
2022-09-01T20:01:43.459Z,97820.25
2022-09-01T20:04:01.109Z,97818.41
2022-09-01T20:06:14.275Z,97818.78
2022-09-01T20:08:31.394Z,97815.06
2022-09-01T20:10:56.551Z,97814.72
2022-09-01T20:13:33.504Z,97814.59
2022-09-01T20:15:50.447Z,97811.44
2022-09-01T20:18:05.759Z,97814.94
2022-09-01T20:20:19.383Z,97816.06
2022-09-01T20:22:35.909Z,97816.31
2022-09-01T20:24:45.718Z,97811.81
2022-09-01T20:27:01.860Z,97814.78
2022-09-01T20:29:27.414Z,97813.00
2022-09-01T20:31:39.422Z,97809.16
2022-09-01T20:33:52.269Z,97807.03
2022-09-01T20:36:10.166Z,97816.97
2022-09-01T20:38:39.503Z,97812.03
2022-09-01T20:40:50.654Z,97807.56
2022-09-01T20:43:12.636Z,97811.66
2022-09-01T20:45:23.237Z,97810.81
2022-09-01T20:47:34.660Z,97811.09
2022-09-01T20:49:43.741Z,97800.75
2022-09-01T20:51:58.693Z,97807.53
2022-09-01T20:54:27.292Z,97804.44
2022-09-01T20:56:45.653Z,97805.59
2022-09-01T20:59:01.340Z,97802.19
2022-09-01T21:01:19.545Z,97804.59
2022-09-01T21:03:40.044Z,97796.09
2022-09-01T21:06:01.653Z,97793.25
2022-09-01T21:08:28.492Z,97794.56
2022-09-01T21:10:43.913Z,97798.38
2022-09-01T21:12:54.833Z,97795.28
2022-09-01T21:15:12.466Z,97793.69
2022-09-01T21:17:29.519Z,97791.59
2022-09-01T21:19:47.841Z,97794.16
2022-09-01T21:22:06.987Z,97793.59
2022-09-01T21:24:20.728Z,97788.03
2022-09-01T21:26:31.298Z,97801.91
2022-09-01T21:28:45.103Z,97793.28
2022-09-01T21:30:57.763Z,97799.81
2022-09-01T21:33:06.662Z,97800.66
2022-09-01T21:35:19.060Z,97793.69
2022-09-01T21:37:28.385Z,97795.53
2022-09-01T21:39:39.560Z,97788.63
2022-09-01T21:41:47.519Z,97794.25
2022-09-01T21:43:55.462Z,97785.91
2022-09-01T21:46:03.765Z,97794.84
2022-09-01T21:48:11.930Z,97792.69
2022-09-01T21:50:22.456Z,97796.50
2022-09-01T21:52:31.083Z,97789.84
2022-09-01T21:54:41.713Z,97788.00
2022-09-01T21:56:53.502Z,97779.94
2022-09-01T21:59:03.444Z,97788.94
2022-09-01T22:01:14.275Z,97788.38
2022-09-01T22:03:22.697Z,97784.31
2022-09-01T22:05:33.497Z,97786.25
2022-09-01T22:07:45.569Z,97784.81
2022-09-01T22:09:57.792Z,97786.22
2022-09-01T22:12:06.307Z,97790.63
2022-09-01T22:14:14.495Z,97783.97
2022-09-01T22:16:23.648Z,97788.75
2022-09-01T22:18:31.825Z,97780.25
2022-09-01T22:20:40.369Z,97780.25
2022-09-01T22:22:48.852Z,97777.28
2022-09-01T22:24:59.436Z,97775.50
2022-09-01T22:27:07.650Z,97782.00
2022-09-01T22:29:15.924Z,97778.47
2022-09-01T22:31:24.606Z,97780.25
2022-09-01T22:33:33.668Z,97774.59
2022-09-01T22:35:43.991Z,97780.84
2022-09-01T22:37:52.537Z,97773.44
2022-09-01T22:40:03.108Z,97770.97
2022-09-01T22:42:11.041Z,97781.69
2022-09-01T22:44:18.904Z,97780.13
2022-09-01T22:46:27.112Z,97776.13
2022-09-01T22:48:35.389Z,97770.59
2022-09-01T22:50:44.395Z,97778.66
2022-09-01T22:52:52.225Z,97776.53
2022-09-01T22:55:03.337Z,97782.25
2022-09-01T22:57:11.959Z,97786.31
2022-09-01T22:59:19.807Z,97783.56
2022-09-01T23:01:33.095Z,97779.09
2022-09-01T23:03:43.653Z,97781.31
2022-09-01T23:05:54.650Z,97780.00
2022-09-01T23:08:24.635Z,97773.59
2022-09-01T23:10:40.532Z,97780.44
2022-09-01T23:12:48.842Z,97776.47
2022-09-01T23:14:56.644Z,97779.91
2022-09-01T23:17:04.474Z,97770.19
2022-09-01T23:19:12.255Z,97777.38
2022-09-01T23:21:23.204Z,97773.84
2022-09-01T23:23:31.456Z,97766.81
2022-09-01T23:25:43.945Z,97774.19
2022-09-01T23:27:53.717Z,97770.56
2022-09-01T23:30:01.826Z,97770.47
2022-09-01T23:32:09.810Z,97770.09
2022-09-01T23:34:17.671Z,97770.97
2022-09-01T23:36:28.995Z,97766.72
2022-09-01T23:38:37.263Z,97760.25
2022-09-01T23:40:52.025Z,97759.84
2022-09-01T23:43:00.036Z,97763.66
2022-09-01T23:45:09.299Z,97757.44
2022-09-01T23:47:17.330Z,97756.59
2022-09-01T23:51:51.041Z,97756.59
2022-09-01T23:53:59.497Z,97765.38
2022-09-01T23:56:14.320Z,97760.63
2022-09-01T23:58:24.212Z,97755.25
